sensor_id;sensor_type;location;lat;lon;timestamp;P1;durP1;ratioP1;P2;durP2;ratioP2
49464;SDS011;35358;49.342;8.802;2023-02-01T00:00:39;5.82;;;3.10;;
49464;SDS011;35358;49.342;8.802;2023-02-01T00:03:07;6.03;;;3.35;;
49464;SDS011;35358;49.342;8.802;2023-02-01T00:05:33;5.28;;;3.30;;
49464;SDS011;35358;49.342;8.802;2023-02-01T00:07:59;6.03;;;3.40;;
49464;SDS011;35358;49.342;8.802;2023-02-01T00:10:24;5.43;;;4.00;;
49464;SDS011;35358;49.342;8.802;2023-02-01T00:12:50;6.20;;;3.42;;
49464;SDS011;35358;49.342;8.802;2023-02-01T00:15:18;7.40;;;4.18;;
49464;SDS011;35358;49.342;8.802;2023-02-01T00:17:44;5.97;;;3.97;;
49464;SDS011;35358;49.342;8.802;2023-02-01T00:20:12;6.63;;;3.70;;
49464;SDS011;35358;49.342;8.802;2023-02-01T00:22:37;10.48;;;4.63;;
49464;SDS011;35358;49.342;8.802;2023-02-01T00:25:03;4.85;;;3.60;;
49464;SDS011;35358;49.342;8.802;2023-02-01T00:27:29;5.50;;;3.08;;
49464;SDS011;35358;49.342;8.802;2023-02-01T00:29:55;5.07;;;3.60;;
49464;SDS011;35358;49.342;8.802;2023-02-01T00:32:25;5.05;;;4.10;;
49464;SDS011;35358;49.342;8.802;2023-02-01T00:34:53;3.58;;;3.10;;
49464;SDS011;35358;49.342;8.802;2023-02-01T00:37:18;5.75;;;3.10;;
49464;SDS011;35358;49.342;8.802;2023-02-01T00:39:44;4.15;;;3.13;;
49464;SDS011;35358;49.342;8.802;2023-02-01T00:42:12;4.28;;;3.33;;
49464;SDS011;35358;49.342;8.802;2023-02-01T00:44:40;5.05;;;3.38;;
49464;SDS011;35358;49.342;8.802;2023-02-01T00:47:05;5.50;;;3.95;;
49464;SDS011;35358;49.342;8.802;2023-02-01T00:49:31;5.32;;;3.47;;
49464;SDS011;35358;49.342;8.802;2023-02-01T00:51:56;4.63;;;3.33;;
49464;SDS011;35358;49.342;8.802;2023-02-01T00:54:22;5.00;;;3.17;;
49464;SDS011;35358;49.342;8.802;2023-02-01T00:56:47;5.45;;;3.28;;
49464;SDS011;35358;49.342;8.802;2023-02-01T00:59:13;4.35;;;3.13;;
49464;SDS011;35358;49.342;8.802;2023-02-01T01:01:39;6.45;;;3.30;;
49464;SDS011;35358;49.342;8.802;2023-02-01T01:04:04;6.20;;;3.30;;
49464;SDS011;35358;49.342;8.802;2023-02-01T01:06:33;4.85;;;3.42;;
49464;SDS011;35358;49.342;8.802;2023-02-01T01:09:00;4.80;;;3.25;;
49464;SDS011;35358;49.342;8.802;2023-02-01T01:11:31;5.35;;;3.10;;
49464;SDS011;35358;49.342;8.802;2023-02-01T01:13:59;6.45;;;3.55;;
49464;SDS011;35358;49.342;8.802;2023-02-01T01:16:25;6.15;;;3.72;;
49464;SDS011;35358;49.342;8.802;2023-02-01T01:18:52;5.72;;;3.65;;
49464;SDS011;35358;49.342;8.802;2023-02-01T01:21:18;6.03;;;3.85;;
49464;SDS011;35358;49.342;8.802;2023-02-01T01:23:47;6.40;;;3.45;;
49464;SDS011;35358;49.342;8.802;2023-02-01T01:26:16;6.30;;;3.75;;
49464;SDS011;35358;49.342;8.802;2023-02-01T01:28:43;6.53;;;3.58;;
49464;SDS011;35358;49.342;8.802;2023-02-01T01:31:10;7.03;;;4.10;;
49464;SDS011;35358;49.342;8.802;2023-02-01T01:36:05;6.22;;;4.25;;
49464;SDS011;35358;49.342;8.802;2023-02-01T01:38:39;6.13;;;4.25;;
49464;SDS011;35358;49.342;8.802;2023-02-01T01:41:06;7.00;;;4.03;;
49464;SDS011;35358;49.342;8.802;2023-02-01T01:46:19;5.40;;;3.90;;
49464;SDS011;35358;49.342;8.802;2023-02-01T01:48:55;5.68;;;3.80;;
49464;SDS011;35358;49.342;8.802;2023-02-01T01:51:27;6.07;;;3.83;;
49464;SDS011;35358;49.342;8.802;2023-02-01T01:54:02;5.05;;;3.70;;
49464;SDS011;35358;49.342;8.802;2023-02-01T01:56:33;10.20;;;4.10;;
49464;SDS011;35358;49.342;8.802;2023-02-01T01:59:00;5.75;;;3.83;;
49464;SDS011;35358;49.342;8.802;2023-02-01T02:01:27;5.80;;;3.42;;
49464;SDS011;35358;49.342;8.802;2023-02-01T02:03:52;4.90;;;3.03;;
49464;SDS011;35358;49.342;8.802;2023-02-01T02:09:04;4.30;;;2.97;;
49464;SDS011;35358;49.342;8.802;2023-02-01T02:11:33;7.22;;;3.83;;
49464;SDS011;35358;49.342;8.802;2023-02-01T02:14:01;4.70;;;3.00;;
49464;SDS011;35358;49.342;8.802;2023-02-01T02:19:19;6.25;;;3.47;;
49464;SDS011;35358;49.342;8.802;2023-02-01T02:22:35;5.38;;;3.35;;
49464;SDS011;35358;49.342;8.802;2023-02-01T02:30:45;6.65;;;3.88;;
49464;SDS011;35358;49.342;8.802;2023-02-01T02:36:05;5.63;;;3.42;;
49464;SDS011;35358;49.342;8.802;2023-02-01T02:41:28;4.93;;;3.45;;
49464;SDS011;35358;49.342;8.802;2023-02-01T02:44:23;6.60;;;4.05;;
49464;SDS011;35358;49.342;8.802;2023-02-01T02:47:17;6.13;;;3.88;;
49464;SDS011;35358;49.342;8.802;2023-02-01T02:49:59;5.95;;;3.53;;
49464;SDS011;35358;49.342;8.802;2023-02-01T02:55:53;8.52;;;3.95;;
49464;SDS011;35358;49.342;8.802;2023-02-01T02:58:38;6.47;;;3.38;;
49464;SDS011;35358;49.342;8.802;2023-02-01T03:01:24;5.93;;;3.17;;
49464;SDS011;35358;49.342;8.802;2023-02-01T03:04:08;5.68;;;3.53;;
49464;SDS011;35358;49.342;8.802;2023-02-01T03:06:42;4.63;;;3.00;;
49464;SDS011;35358;49.342;8.802;2023-02-01T03:09:13;4.63;;;3.08;;
49464;SDS011;35358;49.342;8.802;2023-02-01T03:11:48;6.72;;;3.33;;
49464;SDS011;35358;49.342;8.802;2023-02-01T03:14:36;5.57;;;3.58;;
49464;SDS011;35358;49.342;8.802;2023-02-01T03:17:11;6.35;;;3.40;;
49464;SDS011;35358;49.342;8.802;2023-02-01T03:19:42;9.45;;;3.42;;
49464;SDS011;35358;49.342;8.802;2023-02-01T03:22:18;9.30;;;3.55;;
49464;SDS011;35358;49.342;8.802;2023-02-01T03:29:54;5.15;;;3.60;;
49464;SDS011;35358;49.342;8.802;2023-02-01T03:32:37;6.55;;;3.67;;
49464;SDS011;35358;49.342;8.802;2023-02-01T03:36:12;8.27;;;3.55;;
49464;SDS011;35358;49.342;8.802;2023-02-01T03:44:08;8.00;;;3.90;;
49464;SDS011;35358;49.342;8.802;2023-02-01T03:46:58;6.97;;;3.88;;
49464;SDS011;35358;49.342;8.802;2023-02-01T03:49:29;9.35;;;3.88;;
49464;SDS011;35358;49.342;8.802;2023-02-01T03:52:00;7.00;;;3.95;;
49464;SDS011;35358;49.342;8.802;2023-02-01T03:54:30;5.78;;;3.53;;
49464;SDS011;35358;49.342;8.802;2023-02-01T03:56:57;6.68;;;3.83;;
49464;SDS011;35358;49.342;8.802;2023-02-01T03:59:29;6.68;;;2.72;;
49464;SDS011;35358;49.342;8.802;2023-02-01T04:01:58;9.35;;;4.95;;
49464;SDS011;35358;49.342;8.802;2023-02-01T04:04:23;6.70;;;3.85;;
49464;SDS011;35358;49.342;8.802;2023-02-01T04:06:51;5.85;;;3.85;;
49464;SDS011;35358;49.342;8.802;2023-02-01T04:09:19;5.18;;;3.70;;
49464;SDS011;35358;49.342;8.802;2023-02-01T04:11:45;9.27;;;4.15;;
49464;SDS011;35358;49.342;8.802;2023-02-01T04:14:12;8.15;;;3.67;;
49464;SDS011;35358;49.342;8.802;2023-02-01T04:16:38;9.60;;;4.15;;
49464;SDS011;35358;49.342;8.802;2023-02-01T04:19:06;5.53;;;3.85;;
49464;SDS011;35358;49.342;8.802;2023-02-01T04:21:32;5.63;;;3.70;;
49464;SDS011;35358;49.342;8.802;2023-02-01T04:24:02;6.03;;;3.70;;
49464;SDS011;35358;49.342;8.802;2023-02-01T04:26:28;7.30;;;3.75;;
49464;SDS011;35358;49.342;8.802;2023-02-01T04:28:53;4.30;;;3.50;;
49464;SDS011;35358;49.342;8.802;2023-02-01T04:31:19;4.82;;;3.50;;
49464;SDS011;35358;49.342;8.802;2023-02-01T04:33:53;6.47;;;3.42;;
49464;SDS011;35358;49.342;8.802;2023-02-01T04:36:22;7.47;;;3.83;;
49464;SDS011;35358;49.342;8.802;2023-02-01T04:38:51;11.98;;;4.43;;
49464;SDS011;35358;49.342;8.802;2023-02-01T04:41:17;9.50;;;4.75;;
49464;SDS011;35358;49.342;8.802;2023-02-01T04:43:46;5.72;;;2.97;;
49464;SDS011;35358;49.342;8.802;2023-02-01T04:46:13;6.45;;;3.67;;
49464;SDS011;35358;49.342;8.802;2023-02-01T04:48:41;5.88;;;2.90;;
49464;SDS011;35358;49.342;8.802;2023-02-01T04:51:09;6.60;;;4.00;;
49464;SDS011;35358;49.342;8.802;2023-02-01T04:53:38;8.27;;;4.75;;
49464;SDS011;35358;49.342;8.802;2023-02-01T04:56:05;5.35;;;2.90;;
49464;SDS011;35358;49.342;8.802;2023-02-01T04:58:31;4.45;;;2.65;;
49464;SDS011;35358;49.342;8.802;2023-02-01T05:00:57;5.38;;;3.00;;
49464;SDS011;35358;49.342;8.802;2023-02-01T05:03:27;5.75;;;3.25;;
49464;SDS011;35358;49.342;8.802;2023-02-01T05:05:55;4.38;;;3.05;;
49464;SDS011;35358;49.342;8.802;2023-02-01T05:08:23;5.10;;;3.70;;
49464;SDS011;35358;49.342;8.802;2023-02-01T05:10:50;6.75;;;3.63;;
49464;SDS011;35358;49.342;8.802;2023-02-01T05:13:15;6.93;;;2.85;;
49464;SDS011;35358;49.342;8.802;2023-02-01T05:16:00;6.53;;;3.55;;
49464;SDS011;35358;49.342;8.802;2023-02-01T05:18:25;3.72;;;2.92;;
49464;SDS011;35358;49.342;8.802;2023-02-01T05:20:53;6.30;;;3.17;;
49464;SDS011;35358;49.342;8.802;2023-02-01T05:23:21;5.57;;;2.97;;
49464;SDS011;35358;49.342;8.802;2023-02-01T05:25:46;6.20;;;3.05;;
49464;SDS011;35358;49.342;8.802;2023-02-01T05:28:12;4.03;;;2.25;;
49464;SDS011;35358;49.342;8.802;2023-02-01T05:30:37;5.07;;;2.70;;
49464;SDS011;35358;49.342;8.802;2023-02-01T05:33:03;4.80;;;2.63;;
49464;SDS011;35358;49.342;8.802;2023-02-01T05:35:31;3.45;;;2.30;;
49464;SDS011;35358;49.342;8.802;2023-02-01T05:37:57;5.20;;;2.30;;
49464;SDS011;35358;49.342;8.802;2023-02-01T05:40:22;4.07;;;2.40;;
49464;SDS011;35358;49.342;8.802;2023-02-01T05:42:48;6.15;;;3.65;;
49464;SDS011;35358;49.342;8.802;2023-02-01T05:45:13;6.75;;;3.20;;
49464;SDS011;35358;49.342;8.802;2023-02-01T05:47:39;7.22;;;4.00;;
49464;SDS011;35358;49.342;8.802;2023-02-01T05:50:05;5.63;;;3.30;;
49464;SDS011;35358;49.342;8.802;2023-02-01T05:52:33;5.40;;;3.20;;
49464;SDS011;35358;49.342;8.802;2023-02-01T05:55:04;7.63;;;3.47;;
49464;SDS011;35358;49.342;8.802;2023-02-01T05:57:30;5.75;;;3.60;;
49464;SDS011;35358;49.342;8.802;2023-02-01T05:59:55;5.45;;;3.72;;
49464;SDS011;35358;49.342;8.802;2023-02-01T06:02:21;7.22;;;3.38;;
49464;SDS011;35358;49.342;8.802;2023-02-01T06:04:49;6.57;;;3.88;;
49464;SDS011;35358;49.342;8.802;2023-02-01T06:07:15;7.72;;;4.15;;
49464;SDS011;35358;49.342;8.802;2023-02-01T06:09:43;9.13;;;3.40;;
49464;SDS011;35358;49.342;8.802;2023-02-01T06:12:11;6.57;;;3.33;;
49464;SDS011;35358;49.342;8.802;2023-02-01T06:14:37;4.25;;;2.88;;
49464;SDS011;35358;49.342;8.802;2023-02-01T06:17:02;7.40;;;3.67;;
49464;SDS011;35358;49.342;8.802;2023-02-01T06:19:28;5.88;;;3.78;;
49464;SDS011;35358;49.342;8.802;2023-02-01T06:21:56;5.82;;;3.20;;
49464;SDS011;35358;49.342;8.802;2023-02-01T06:24:23;4.53;;;3.10;;
49464;SDS011;35358;49.342;8.802;2023-02-01T06:26:49;5.50;;;3.88;;
49464;SDS011;35358;49.342;8.802;2023-02-01T06:29:14;6.15;;;3.90;;
49464;SDS011;35358;49.342;8.802;2023-02-01T06:31:42;7.28;;;4.32;;
49464;SDS011;35358;49.342;8.802;2023-02-01T06:34:08;7.80;;;3.92;;
49464;SDS011;35358;49.342;8.802;2023-02-01T06:36:33;9.23;;;3.90;;
49464;SDS011;35358;49.342;8.802;2023-02-01T06:38:59;9.60;;;4.35;;
49464;SDS011;35358;49.342;8.802;2023-02-01T06:41:25;10.18;;;5.20;;
49464;SDS011;35358;49.342;8.802;2023-02-01T06:43:51;5.35;;;3.42;;
49464;SDS011;35358;49.342;8.802;2023-02-01T06:46:16;9.68;;;4.85;;
49464;SDS011;35358;49.342;8.802;2023-02-01T06:48:42;9.00;;;4.32;;
49464;SDS011;35358;49.342;8.802;2023-02-01T06:51:17;10.48;;;4.53;;
49464;SDS011;35358;49.342;8.802;2023-02-01T06:53:50;5.03;;;3.88;;
49464;SDS011;35358;49.342;8.802;2023-02-01T06:56:16;8.52;;;4.60;;
49464;SDS011;35358;49.342;8.802;2023-02-01T06:58:41;8.60;;;4.85;;
49464;SDS011;35358;49.342;8.802;2023-02-01T07:01:10;4.97;;;3.40;;
49464;SDS011;35358;49.342;8.802;2023-02-01T07:03:36;8.88;;;4.53;;
49464;SDS011;35358;49.342;8.802;2023-02-01T07:06:05;11.25;;;4.90;;
49464;SDS011;35358;49.342;8.802;2023-02-01T07:08:32;8.85;;;4.20;;
49464;SDS011;35358;49.342;8.802;2023-02-01T07:11:03;11.90;;;4.95;;
49464;SDS011;35358;49.342;8.802;2023-02-01T07:13:33;8.70;;;4.70;;
49464;SDS011;35358;49.342;8.802;2023-02-01T07:16:03;10.65;;;5.22;;
49464;SDS011;35358;49.342;8.802;2023-02-01T07:18:30;8.23;;;4.05;;
49464;SDS011;35358;49.342;8.802;2023-02-01T07:20:59;9.37;;;5.13;;
49464;SDS011;35358;49.342;8.802;2023-02-01T07:23:25;8.20;;;4.60;;
49464;SDS011;35358;49.342;8.802;2023-02-01T07:25:55;10.43;;;4.78;;
49464;SDS011;35358;49.342;8.802;2023-02-01T07:28:22;10.40;;;3.70;;
49464;SDS011;35358;49.342;8.802;2023-02-01T07:30:49;13.00;;;4.75;;
49464;SDS011;35358;49.342;8.802;2023-02-01T07:33:23;9.88;;;3.78;;
49464;SDS011;35358;49.342;8.802;2023-02-01T07:35:50;9.63;;;4.50;;
49464;SDS011;35358;49.342;8.802;2023-02-01T07:38:18;11.70;;;4.63;;
49464;SDS011;35358;49.342;8.802;2023-02-01T07:40:46;8.80;;;4.68;;
49464;SDS011;35358;49.342;8.802;2023-02-01T07:43:12;10.57;;;3.80;;
49464;SDS011;35358;49.342;8.802;2023-02-01T07:45:40;5.78;;;2.95;;
49464;SDS011;35358;49.342;8.802;2023-02-01T07:48:06;8.77;;;3.10;;
49464;SDS011;35358;49.342;8.802;2023-02-01T07:50:31;8.68;;;3.45;;
49464;SDS011;35358;49.342;8.802;2023-02-01T07:53:00;10.48;;;3.65;;
49464;SDS011;35358;49.342;8.802;2023-02-01T07:55:26;7.72;;;3.38;;
49464;SDS011;35358;49.342;8.802;2023-02-01T07:57:52;9.57;;;4.57;;
49464;SDS011;35358;49.342;8.802;2023-02-01T08:00:18;12.15;;;5.15;;
49464;SDS011;35358;49.342;8.802;2023-02-01T08:03:03;9.38;;;4.00;;
49464;SDS011;35358;49.342;8.802;2023-02-01T08:05:29;9.15;;;4.68;;
49464;SDS011;35358;49.342;8.802;2023-02-01T08:07:55;7.15;;;4.20;;
49464;SDS011;35358;49.342;8.802;2023-02-01T08:10:25;10.38;;;4.65;;
49464;SDS011;35358;49.342;8.802;2023-02-01T08:12:57;16.15;;;4.25;;
49464;SDS011;35358;49.342;8.802;2023-02-01T08:15:23;9.05;;;4.43;;
49464;SDS011;35358;49.342;8.802;2023-02-01T08:17:49;6.60;;;3.65;;
49464;SDS011;35358;49.342;8.802;2023-02-01T08:20:15;11.60;;;3.33;;
49464;SDS011;35358;49.342;8.802;2023-02-01T08:22:42;7.50;;;3.53;;
49464;SDS011;35358;49.342;8.802;2023-02-01T08:25:10;7.28;;;3.90;;
49464;SDS011;35358;49.342;8.802;2023-02-01T08:27:36;9.57;;;3.83;;
49464;SDS011;35358;49.342;8.802;2023-02-01T08:30:03;6.25;;;3.70;;
49464;SDS011;35358;49.342;8.802;2023-02-01T08:32:29;10.10;;;4.47;;
49464;SDS011;35358;49.342;8.802;2023-02-01T08:34:55;10.88;;;4.75;;
49464;SDS011;35358;49.342;8.802;2023-02-01T08:37:21;11.70;;;5.43;;
49464;SDS011;35358;49.342;8.802;2023-02-01T08:39:47;16.33;;;5.28;;
49464;SDS011;35358;49.342;8.802;2023-02-01T08:42:15;9.23;;;4.53;;
49464;SDS011;35358;49.342;8.802;2023-02-01T08:45:03;10.07;;;4.97;;
49464;SDS011;35358;49.342;8.802;2023-02-01T08:47:29;12.55;;;5.05;;
49464;SDS011;35358;49.342;8.802;2023-02-01T08:49:55;15.23;;;5.35;;
49464;SDS011;35358;49.342;8.802;2023-02-01T08:52:21;13.50;;;5.45;;
49464;SDS011;35358;49.342;8.802;2023-02-01T08:54:46;11.02;;;4.80;;
49464;SDS011;35358;49.342;8.802;2023-02-01T08:57:12;10.50;;;4.93;;
49464;SDS011;35358;49.342;8.802;2023-02-01T08:59:38;10.68;;;4.18;;
49464;SDS011;35358;49.342;8.802;2023-02-01T09:02:06;11.55;;;4.40;;
49464;SDS011;35358;49.342;8.802;2023-02-01T09:04:36;15.32;;;5.22;;
49464;SDS011;35358;49.342;8.802;2023-02-01T09:07:02;7.88;;;3.72;;
49464;SDS011;35358;49.342;8.802;2023-02-01T09:09:28;11.45;;;4.03;;
49464;SDS011;35358;49.342;8.802;2023-02-01T09:11:53;15.50;;;3.78;;
49464;SDS011;35358;49.342;8.802;2023-02-01T09:14:19;10.02;;;4.80;;
49464;SDS011;35358;49.342;8.802;2023-02-01T09:16:44;7.82;;;3.47;;
49464;SDS011;35358;49.342;8.802;2023-02-01T09:19:17;11.45;;;4.43;;
49464;SDS011;35358;49.342;8.802;2023-02-01T09:21:42;7.78;;;3.75;;
49464;SDS011;35358;49.342;8.802;2023-02-01T09:24:09;8.23;;;3.88;;
49464;SDS011;35358;49.342;8.802;2023-02-01T09:26:36;16.33;;;5.85;;
49464;SDS011;35358;49.342;8.802;2023-02-01T09:29:02;9.95;;;3.90;;
49464;SDS011;35358;49.342;8.802;2023-02-01T09:31:31;12.13;;;3.75;;
49464;SDS011;35358;49.342;8.802;2023-02-01T09:33:59;12.70;;;3.70;;
49464;SDS011;35358;49.342;8.802;2023-02-01T09:36:25;9.20;;;4.05;;
49464;SDS011;35358;49.342;8.802;2023-02-01T09:38:57;15.82;;;5.18;;
49464;SDS011;35358;49.342;8.802;2023-02-01T09:41:35;11.07;;;3.83;;
49464;SDS011;35358;49.342;8.802;2023-02-01T09:46:39;10.82;;;3.20;;
49464;SDS011;35358;49.342;8.802;2023-02-01T09:49:05;11.77;;;3.45;;
49464;SDS011;35358;49.342;8.802;2023-02-01T09:51:44;10.30;;;2.77;;
49464;SDS011;35358;49.342;8.802;2023-02-01T09:54:14;8.80;;;3.40;;
49464;SDS011;35358;49.342;8.802;2023-02-01T09:56:46;11.35;;;3.35;;
49464;SDS011;35358;49.342;8.802;2023-02-01T10:01:47;13.75;;;4.72;;
49464;SDS011;35358;49.342;8.802;2023-02-01T10:04:18;7.30;;;2.47;;
49464;SDS011;35358;49.342;8.802;2023-02-01T10:06:56;10.63;;;3.00;;
49464;SDS011;35358;49.342;8.802;2023-02-01T10:09:42;19.58;;;3.63;;
49464;SDS011;35358;49.342;8.802;2023-02-01T10:18:06;9.77;;;2.53;;
49464;SDS011;35358;49.342;8.802;2023-02-01T10:26:23;12.13;;;3.03;;
49464;SDS011;35358;49.342;8.802;2023-02-01T10:28:58;11.27;;;2.60;;
49464;SDS011;35358;49.342;8.802;2023-02-01T10:31:26;7.60;;;2.38;;
49464;SDS011;35358;49.342;8.802;2023-02-01T10:33:56;15.60;;;3.03;;
49464;SDS011;35358;49.342;8.802;2023-02-01T10:39:25;11.82;;;2.78;;
49464;SDS011;35358;49.342;8.802;2023-02-01T10:41:53;15.25;;;2.80;;
49464;SDS011;35358;49.342;8.802;2023-02-01T10:44:24;8.88;;;2.88;;
49464;SDS011;35358;49.342;8.802;2023-02-01T10:46:55;16.30;;;3.15;;
49464;SDS011;35358;49.342;8.802;2023-02-01T10:49:23;7.70;;;2.05;;
49464;SDS011;35358;49.342;8.802;2023-02-01T10:54:35;12.73;;;2.50;;
49464;SDS011;35358;49.342;8.802;2023-02-01T10:57:08;11.88;;;2.72;;
49464;SDS011;35358;49.342;8.802;2023-02-01T10:59:40;7.60;;;2.00;;
49464;SDS011;35358;49.342;8.802;2023-02-01T11:04:58;9.25;;;1.92;;
49464;SDS011;35358;49.342;8.802;2023-02-01T11:07:25;11.18;;;2.33;;
49464;SDS011;35358;49.342;8.802;2023-02-01T11:09:52;9.75;;;2.53;;
49464;SDS011;35358;49.342;8.802;2023-02-01T11:15:18;8.13;;;2.13;;
49464;SDS011;35358;49.342;8.802;2023-02-01T11:17:47;12.23;;;2.40;;
49464;SDS011;35358;49.342;8.802;2023-02-01T11:20:17;11.95;;;3.58;;
49464;SDS011;35358;49.342;8.802;2023-02-01T11:22:48;9.50;;;2.33;;
49464;SDS011;35358;49.342;8.802;2023-02-01T11:25:20;18.02;;;2.55;;
49464;SDS011;35358;49.342;8.802;2023-02-01T11:27:50;13.60;;;2.55;;
49464;SDS011;35358;49.342;8.802;2023-02-01T11:30:34;10.98;;;2.72;;
49464;SDS011;35358;49.342;8.802;2023-02-01T11:33:05;19.23;;;3.33;;
49464;SDS011;35358;49.342;8.802;2023-02-01T11:35:32;14.10;;;2.08;;
49464;SDS011;35358;49.342;8.802;2023-02-01T11:38:10;15.82;;;2.95;;
49464;SDS011;35358;49.342;8.802;2023-02-01T11:41:43;12.05;;;2.22;;
49464;SDS011;35358;49.342;8.802;2023-02-01T11:46:31;14.30;;;2.63;;
49464;SDS011;35358;49.342;8.802;2023-02-01T11:49:13;13.75;;;3.38;;
49464;SDS011;35358;49.342;8.802;2023-02-01T11:51:55;6.55;;;2.15;;
49464;SDS011;35358;49.342;8.802;2023-02-01T12:00:47;10.75;;;2.30;;
49464;SDS011;35358;49.342;8.802;2023-02-01T12:06:59;9.63;;;3.25;;
49464;SDS011;35358;49.342;8.802;2023-02-01T12:12:06;8.55;;;2.60;;
49464;SDS011;35358;49.342;8.802;2023-02-01T12:37:33;8.40;;;2.38;;
49464;SDS011;35358;49.342;8.802;2023-02-01T12:45:35;8.48;;;2.15;;
49464;SDS011;35358;49.342;8.802;2023-02-01T12:50:54;7.75;;;1.60;;
49464;SDS011;35358;49.342;8.802;2023-02-01T12:53:30;11.05;;;1.88;;
49464;SDS011;35358;49.342;8.802;2023-02-01T12:59:15;12.68;;;2.25;;
49464;SDS011;35358;49.342;8.802;2023-02-01T13:01:44;16.65;;;3.35;;
49464;SDS011;35358;49.342;8.802;2023-02-01T13:07:11;12.75;;;2.55;;
49464;SDS011;35358;49.342;8.802;2023-02-01T13:09:43;10.63;;;2.28;;
49464;SDS011;35358;49.342;8.802;2023-02-01T13:12:31;19.85;;;1.70;;
49464;SDS011;35358;49.342;8.802;2023-02-01T13:15:16;9.88;;;2.00;;
49464;SDS011;35358;49.342;8.802;2023-02-01T13:17:48;7.40;;;2.60;;
49464;SDS011;35358;49.342;8.802;2023-02-01T13:23:00;9.70;;;2.22;;
49464;SDS011;35358;49.342;8.802;2023-02-01T13:25:40;11.15;;;2.55;;
49464;SDS011;35358;49.342;8.802;2023-02-01T13:28:23;9.45;;;3.08;;
49464;SDS011;35358;49.342;8.802;2023-02-01T13:42:23;11.20;;;2.10;;
49464;SDS011;35358;49.342;8.802;2023-02-01T13:45:00;11.48;;;2.55;;
49464;SDS011;35358;49.342;8.802;2023-02-01T13:47:40;5.80;;;1.75;;
49464;SDS011;35358;49.342;8.802;2023-02-01T13:52:44;8.20;;;1.98;;
49464;SDS011;35358;49.342;8.802;2023-02-01T13:57:48;10.25;;;2.90;;
49464;SDS011;35358;49.342;8.802;2023-02-01T14:16:15;13.30;;;2.30;;
49464;SDS011;35358;49.342;8.802;2023-02-01T14:36:55;10.63;;;2.08;;
49464;SDS011;35358;49.342;8.802;2023-02-01T14:47:47;8.77;;;1.73;;
49464;SDS011;35358;49.342;8.802;2023-02-01T15:06:40;9.05;;;1.92;;
49464;SDS011;35358;49.342;8.802;2023-02-01T15:15:02;14.48;;;2.20;;
49464;SDS011;35358;49.342;8.802;2023-02-01T15:17:51;9.77;;;1.95;;
49464;SDS011;35358;49.342;8.802;2023-02-01T15:20:24;12.23;;;2.08;;
49464;SDS011;35358;49.342;8.802;2023-02-01T15:22:51;11.27;;;1.90;;
49464;SDS011;35358;49.342;8.802;2023-02-01T15:25:27;5.25;;;1.45;;
49464;SDS011;35358;49.342;8.802;2023-02-01T15:27:57;11.43;;;2.00;;
49464;SDS011;35358;49.342;8.802;2023-02-01T15:30:24;5.50;;;1.50;;
49464;SDS011;35358;49.342;8.802;2023-02-01T15:33:03;15.10;;;1.55;;
49464;SDS011;35358;49.342;8.802;2023-02-01T15:35:39;10.93;;;1.83;;
49464;SDS011;35358;49.342;8.802;2023-02-01T15:41:07;10.82;;;2.00;;
49464;SDS011;35358;49.342;8.802;2023-02-01T15:46:13;8.05;;;1.60;;
49464;SDS011;35358;49.342;8.802;2023-02-01T15:48:46;14.02;;;3.25;;
49464;SDS011;35358;49.342;8.802;2023-02-01T15:51:14;5.47;;;1.30;;
49464;SDS011;35358;49.342;8.802;2023-02-01T15:53:49;9.65;;;1.75;;
49464;SDS011;35358;49.342;8.802;2023-02-01T15:56:32;6.75;;;1.70;;
49464;SDS011;35358;49.342;8.802;2023-02-01T16:01:45;6.50;;;1.35;;
49464;SDS011;35358;49.342;8.802;2023-02-01T16:04:19;7.90;;;1.80;;
49464;SDS011;35358;49.342;8.802;2023-02-01T16:09:17;8.07;;;1.80;;
49464;SDS011;35358;49.342;8.802;2023-02-01T16:11:51;6.20;;;1.40;;
49464;SDS011;35358;49.342;8.802;2023-02-01T16:14:20;11.82;;;1.60;;
49464;SDS011;35358;49.342;8.802;2023-02-01T16:16:46;8.60;;;2.13;;
49464;SDS011;35358;49.342;8.802;2023-02-01T16:19:12;11.80;;;2.33;;
49464;SDS011;35358;49.342;8.802;2023-02-01T16:21:37;13.43;;;2.05;;
49464;SDS011;35358;49.342;8.802;2023-02-01T16:24:03;10.52;;;3.38;;
49464;SDS011;35358;49.342;8.802;2023-02-01T16:26:34;9.10;;;1.77;;
49464;SDS011;35358;49.342;8.802;2023-02-01T16:29:00;10.02;;;2.47;;
49464;SDS011;35358;49.342;8.802;2023-02-01T16:31:31;13.18;;;3.05;;
49464;SDS011;35358;49.342;8.802;2023-02-01T16:34:04;13.30;;;2.83;;
49464;SDS011;35358;49.342;8.802;2023-02-01T16:36:30;11.43;;;3.15;;
49464;SDS011;35358;49.342;8.802;2023-02-01T16:38:57;13.93;;;2.70;;
49464;SDS011;35358;49.342;8.802;2023-02-01T16:41:23;11.32;;;1.80;;
49464;SDS011;35358;49.342;8.802;2023-02-01T16:43:50;13.05;;;2.53;;
49464;SDS011;35358;49.342;8.802;2023-02-01T16:46:21;10.88;;;2.38;;
49464;SDS011;35358;49.342;8.802;2023-02-01T16:48:52;9.07;;;1.75;;
49464;SDS011;35358;49.342;8.802;2023-02-01T16:51:23;7.80;;;1.75;;
49464;SDS011;35358;49.342;8.802;2023-02-01T16:53:51;11.13;;;2.35;;
49464;SDS011;35358;49.342;8.802;2023-02-01T16:58:50;9.50;;;2.83;;
49464;SDS011;35358;49.342;8.802;2023-02-01T17:01:21;12.70;;;2.33;;
49464;SDS011;35358;49.342;8.802;2023-02-01T17:03:49;13.32;;;2.15;;
49464;SDS011;35358;49.342;8.802;2023-02-01T17:06:19;15.65;;;2.47;;
49464;SDS011;35358;49.342;8.802;2023-02-01T17:08:54;7.07;;;2.15;;
49464;SDS011;35358;49.342;8.802;2023-02-01T17:11:23;8.15;;;1.73;;
49464;SDS011;35358;49.342;8.802;2023-02-01T17:13:51;11.05;;;2.80;;
49464;SDS011;35358;49.342;8.802;2023-02-01T17:16:22;8.20;;;2.08;;
49464;SDS011;35358;49.342;8.802;2023-02-01T17:21:27;8.25;;;2.63;;
49464;SDS011;35358;49.342;8.802;2023-02-01T17:23:57;10.07;;;2.13;;
49464;SDS011;35358;49.342;8.802;2023-02-01T17:26:24;12.35;;;3.08;;
49464;SDS011;35358;49.342;8.802;2023-02-01T17:28:49;9.43;;;2.50;;
49464;SDS011;35358;49.342;8.802;2023-02-01T17:31:18;8.73;;;2.05;;
49464;SDS011;35358;49.342;8.802;2023-02-01T17:33:45;9.32;;;1.92;;
49464;SDS011;35358;49.342;8.802;2023-02-01T17:36:12;13.30;;;2.47;;
49464;SDS011;35358;49.342;8.802;2023-02-01T17:38:40;14.70;;;3.13;;
49464;SDS011;35358;49.342;8.802;2023-02-01T17:41:10;8.13;;;1.90;;
49464;SDS011;35358;49.342;8.802;2023-02-01T17:43:36;15.50;;;4.15;;
49464;SDS011;35358;49.342;8.802;2023-02-01T17:46:16;10.13;;;1.77;;
49464;SDS011;35358;49.342;8.802;2023-02-01T17:48:50;15.88;;;2.50;;
49464;SDS011;35358;49.342;8.802;2023-02-01T17:51:20;12.52;;;2.78;;
49464;SDS011;35358;49.342;8.802;2023-02-01T17:53:47;11.50;;;2.42;;
49464;SDS011;35358;49.342;8.802;2023-02-01T17:56:14;6.65;;;2.22;;
49464;SDS011;35358;49.342;8.802;2023-02-01T17:58:42;13.00;;;2.30;;
49464;SDS011;35358;49.342;8.802;2023-02-01T18:01:18;14.50;;;2.63;;
49464;SDS011;35358;49.342;8.802;2023-02-01T18:03:48;9.27;;;1.60;;
49464;SDS011;35358;49.342;8.802;2023-02-01T18:06:14;12.02;;;2.42;;
49464;SDS011;35358;49.342;8.802;2023-02-01T18:08:42;12.60;;;2.08;;
49464;SDS011;35358;49.342;8.802;2023-02-01T18:11:11;14.70;;;2.58;;
49464;SDS011;35358;49.342;8.802;2023-02-01T18:13:41;12.70;;;3.10;;
49464;SDS011;35358;49.342;8.802;2023-02-01T18:16:12;8.95;;;2.63;;
49464;SDS011;35358;49.342;8.802;2023-02-01T18:18:45;10.85;;;2.40;;
49464;SDS011;35358;49.342;8.802;2023-02-01T18:21:14;10.10;;;2.67;;
49464;SDS011;35358;49.342;8.802;2023-02-01T18:23:43;13.48;;;2.10;;
49464;SDS011;35358;49.342;8.802;2023-02-01T18:26:13;13.50;;;2.35;;
49464;SDS011;35358;49.342;8.802;2023-02-01T18:28:41;8.93;;;2.60;;
49464;SDS011;35358;49.342;8.802;2023-02-01T18:31:15;9.20;;;2.00;;
49464;SDS011;35358;49.342;8.802;2023-02-01T18:33:56;12.88;;;2.28;;
49464;SDS011;35358;49.342;8.802;2023-02-01T18:36:25;11.25;;;2.45;;